createdAt,value
2018-10-15T00:01:08.913Z,67.12
2018-10-15T00:03:38.592Z,67.75
2018-10-15T00:06:07.957Z,67.28
2018-10-15T00:08:37.555Z,67.62
2018-10-15T00:11:06.910Z,67.28
2018-10-15T00:13:36.581Z,67.58
2018-10-15T00:16:05.584Z,68.34
2018-10-15T00:18:34.601Z,67.90
2018-10-15T00:21:03.659Z,68.68
2018-10-15T00:23:33.014Z,68.09
2018-10-15T00:26:02.497Z,68.85
2018-10-15T00:28:31.849Z,68.79
2018-10-15T00:31:01.807Z,68.77
2018-10-15T00:33:31.416Z,68.87
2018-10-15T00:36:00.478Z,69.09
2018-10-15T00:38:29.844Z,68.91
2018-10-15T00:40:59.155Z,69.58
2018-10-15T00:43:28.331Z,69.40
2018-10-15T00:45:57.962Z,68.84
2018-10-15T00:48:27.299Z,69.44
2018-10-15T00:50:56.680Z,69.31
2018-10-15T00:53:26.051Z,69.75
2018-10-15T00:55:55.943Z,69.72
2018-10-15T00:58:25.575Z,70.00
2018-10-15T01:00:55.288Z,69.58
2018-10-15T01:03:24.899Z,69.92
2018-10-15T01:05:53.901Z,69.59
2018-10-15T01:08:23.753Z,70.69
2018-10-15T01:10:53.213Z,70.60
2018-10-15T01:13:22.822Z,70.25
2018-10-15T01:15:52.221Z,70.27
2018-10-15T01:18:21.561Z,70.39
2018-10-15T01:20:50.752Z,70.30
2018-10-15T01:23:20.084Z,70.53
2018-10-15T01:25:49.763Z,70.54
2018-10-15T01:28:18.868Z,70.87
2018-10-15T01:30:48.178Z,71.16
2018-10-15T01:33:17.835Z,70.63
2018-10-15T01:35:47.175Z,71.08
2018-10-15T01:38:16.856Z,70.39
2018-10-15T01:40:46.463Z,70.72
2018-10-15T01:43:15.296Z,71.07
2018-10-15T01:45:44.962Z,70.54
2018-10-15T01:48:14.296Z,70.66
2018-10-15T01:50:44.229Z,70.86
2018-10-15T01:53:13.537Z,70.64
2018-10-15T01:55:43.923Z,70.99
2018-10-15T01:58:13.258Z,70.77
2018-10-15T02:00:44.222Z,70.56
2018-10-15T02:03:13.823Z,71.08
2018-10-15T02:05:44.329Z,71.13
2018-10-15T02:08:13.628Z,71.20
2018-10-15T02:10:44.276Z,71.16
2018-10-15T02:13:13.882Z,71.21
2018-10-15T02:15:44.229Z,71.24
2018-10-15T02:18:13.521Z,71.52
2018-10-15T02:20:44.031Z,71.50
2018-10-15T02:23:19.135Z,71.27
2018-10-15T02:25:48.161Z,71.12
2018-10-15T02:28:17.523Z,71.30
2018-10-15T02:30:47.131Z,71.36
2018-10-15T02:33:16.148Z,71.59
2018-10-15T02:35:45.672Z,71.67
2018-10-15T02:38:15.003Z,71.64
2018-10-15T02:40:44.339Z,71.81
2018-10-15T02:43:13.711Z,71.22
2018-10-15T02:45:44.283Z,71.14
2018-10-15T02:48:13.650Z,71.72
2018-10-15T02:50:44.489Z,71.26
2018-10-15T02:53:13.996Z,71.80
2018-10-15T02:55:44.344Z,71.54
2018-10-15T02:58:13.605Z,71.82
2018-10-15T03:00:43.726Z,71.65
2018-10-15T03:03:13.280Z,71.39
2018-10-15T03:05:42.606Z,71.67
2018-10-15T03:08:12.025Z,72.12
2018-10-15T03:10:41.366Z,71.98
2018-10-15T03:13:10.794Z,71.93
2018-10-15T03:15:40.226Z,71.46
2018-10-15T03:18:09.415Z,71.73
2018-10-15T03:20:38.775Z,71.62
2018-10-15T03:23:08.157Z,71.97
2018-10-15T03:25:37.554Z,72.12
2018-10-15T03:28:07.103Z,72.05
2018-10-15T03:30:36.476Z,71.86
2018-10-15T03:33:05.739Z,71.59
2018-10-15T03:35:35.105Z,72.36
2018-10-15T03:38:03.995Z,72.38
2018-10-15T03:40:33.586Z,71.92
2018-10-15T03:43:03.138Z,71.80
2018-10-15T03:45:32.475Z,71.65
2018-10-15T03:48:02.126Z,72.00
2018-10-15T03:50:31.171Z,71.97
2018-10-15T03:53:00.528Z,72.16
2018-10-15T03:55:30.136Z,72.47
2018-10-15T03:57:59.590Z,71.94
2018-10-15T04:00:29.268Z,71.82
2018-10-15T04:02:58.629Z,72.47
2018-10-15T04:05:28.171Z,71.99
2018-10-15T04:07:57.204Z,72.03
2018-10-15T04:10:26.524Z,72.03
2018-10-15T04:12:56.161Z,72.20
2018-10-15T04:15:25.570Z,72.24
2018-10-15T04:17:54.571Z,72.25
2018-10-15T04:20:23.893Z,72.64
2018-10-15T04:22:53.220Z,72.83
2018-10-15T04:25:22.683Z,72.17
2018-10-15T04:27:52.484Z,72.92
2018-10-15T04:30:21.888Z,72.56
2018-10-15T04:32:51.426Z,72.66
2018-10-15T04:35:20.450Z,72.77
2018-10-15T04:37:50.155Z,73.44
2018-10-15T04:40:19.606Z,73.38
2018-10-15T04:42:48.968Z,73.42
2018-10-15T04:45:18.078Z,73.18
2018-10-15T04:47:47.475Z,73.84
2018-10-15T04:50:17.117Z,73.91
2018-10-15T04:52:46.918Z,73.62
2018-10-15T04:55:16.745Z,73.95
2018-10-15T04:57:46.658Z,74.19
2018-10-15T05:00:16.328Z,74.79
2018-10-15T05:02:46.162Z,74.34
2018-10-15T05:05:15.170Z,75.19
2018-10-15T05:07:44.418Z,75.27
2018-10-15T05:10:13.414Z,75.37
2018-10-15T05:12:44.085Z,75.64
2018-10-15T05:15:13.419Z,75.52
2018-10-15T05:17:42.734Z,75.43
2018-10-15T05:20:12.071Z,75.12
2018-10-15T05:22:41.556Z,75.80
2018-10-15T05:25:10.986Z,75.78
2018-10-15T05:27:40.630Z,75.80
2018-10-15T05:30:10.015Z,75.33
2018-10-15T05:32:39.468Z,75.55
2018-10-15T05:35:08.421Z,75.34
2018-10-15T05:37:37.755Z,75.95
2018-10-15T05:40:06.749Z,75.94
2018-10-15T05:42:35.841Z,75.64
2018-10-15T05:45:04.843Z,75.47
2018-10-15T05:47:33.537Z,75.54
2018-10-15T05:50:02.881Z,75.64
2018-10-15T05:52:32.449Z,75.93
2018-10-15T05:55:01.774Z,75.33
2018-10-15T05:57:31.374Z,76.14
2018-10-15T06:00:00.793Z,75.86
2018-10-15T06:02:30.440Z,75.61
2018-10-15T06:04:59.730Z,76.31
2018-10-15T06:07:29.072Z,75.92
2018-10-15T06:09:58.700Z,76.49
2018-10-15T06:12:28.017Z,76.53
2018-10-15T06:14:57.839Z,76.51
2018-10-15T06:17:26.845Z,76.29
2018-10-15T06:19:56.387Z,76.31
2018-10-15T06:22:25.986Z,76.32
2018-10-15T06:24:55.702Z,75.91
2018-10-15T06:27:26.000Z,75.85
2018-10-15T06:29:56.682Z,75.91
2018-10-15T06:32:26.053Z,74.99
2018-10-15T06:34:55.468Z,74.59
2018-10-15T06:37:24.418Z,74.60
2018-10-15T06:39:53.963Z,73.56
2018-10-15T06:42:23.610Z,73.39
2018-10-15T06:44:52.779Z,72.40
2018-10-15T06:47:22.156Z,71.54
2018-10-15T06:49:51.842Z,70.96
2018-10-15T06:52:20.814Z,70.53
2018-10-15T06:54:50.714Z,70.73
2018-10-15T06:57:20.789Z,70.07
2018-10-15T06:59:50.621Z,69.02
2018-10-15T07:02:20.078Z,68.29
2018-10-15T07:04:49.828Z,68.52
2018-10-15T07:07:19.208Z,67.90
2018-10-15T07:09:48.873Z,67.90
2018-10-15T07:12:17.629Z,67.33
2018-10-15T07:14:47.206Z,67.13
2018-10-15T07:17:16.706Z,66.86
2018-10-15T07:19:45.742Z,66.48
2018-10-15T07:22:15.114Z,65.38
2018-10-15T07:24:44.762Z,64.46
2018-10-15T07:27:14.056Z,63.21
2018-10-15T07:29:44.721Z,62.73
2018-10-15T07:32:14.067Z,61.70
2018-10-15T07:34:45.072Z,61.54
2018-10-15T07:37:14.626Z,61.48
2018-10-15T07:39:45.010Z,61.33
2018-10-15T07:42:14.810Z,61.32
2018-10-15T07:44:45.058Z,60.92
2018-10-15T07:47:14.079Z,59.97
2018-10-15T07:49:44.982Z,59.83
2018-10-15T07:52:14.341Z,58.82
2018-10-15T07:54:44.967Z,58.22
2018-10-15T07:57:14.256Z,58.46
2018-10-15T07:59:45.026Z,57.33
2018-10-15T08:02:14.649Z,57.44
2018-10-15T08:04:45.016Z,55.88
2018-10-15T08:07:14.624Z,55.12
2018-10-15T08:09:44.971Z,55.11
2018-10-15T08:12:13.934Z,54.48
2018-10-15T08:14:43.335Z,54.07
2018-10-15T08:17:12.747Z,54.02
2018-10-15T08:19:42.046Z,53.52
2018-10-15T08:22:11.359Z,51.89
2018-10-15T08:24:40.963Z,51.58
2018-10-15T08:27:10.321Z,51.30
2018-10-15T08:29:39.735Z,51.04
2018-10-15T08:32:09.026Z,50.72
2018-10-15T08:34:38.653Z,50.93
2018-10-15T08:37:08.118Z,50.30
2018-10-15T08:39:37.430Z,50.03
2018-10-15T08:42:06.572Z,48.25
2018-10-15T08:44:36.088Z,48.45
2018-10-15T08:47:05.894Z,46.59
2018-10-15T08:49:35.258Z,45.20
2018-10-15T08:52:05.192Z,44.15
2018-10-15T08:54:34.642Z,44.47
2018-10-15T08:57:04.196Z,45.32
2018-10-15T08:59:33.824Z,45.27
2018-10-15T09:02:02.808Z,44.48
2018-10-15T09:04:32.029Z,44.22
2018-10-15T09:07:01.688Z,43.28
2018-10-15T09:09:31.204Z,44.29
2018-10-15T09:12:01.130Z,43.74
2018-10-15T09:14:29.887Z,44.10
2018-10-15T09:16:59.038Z,43.59
2018-10-15T09:19:28.811Z,42.91
2018-10-15T09:21:58.133Z,43.52
2018-10-15T09:24:27.882Z,43.69
2018-10-15T09:26:57.255Z,43.13
2018-10-15T09:29:26.846Z,41.81
2018-10-15T09:31:57.396Z,41.89
2018-10-15T09:34:27.427Z,40.99
2018-10-15T09:36:57.239Z,41.50
2018-10-15T09:39:26.733Z,40.94
2018-10-15T09:41:56.099Z,40.63
2018-10-15T09:44:25.401Z,40.86
2018-10-15T09:46:55.205Z,40.60
2018-10-15T09:49:24.677Z,41.06
2018-10-15T09:51:54.307Z,40.28
2018-10-15T09:54:23.899Z,40.08
2018-10-15T09:56:53.343Z,40.03
2018-10-15T09:59:22.923Z,39.43
2018-10-15T10:01:52.118Z,39.44
2018-10-15T10:04:21.568Z,40.69
2018-10-15T10:06:51.250Z,40.63
2018-10-15T10:09:21.031Z,40.57
2018-10-15T10:11:50.314Z,39.33
2018-10-15T10:14:19.927Z,37.99
2018-10-15T10:16:50.105Z,38.56
2018-10-15T10:19:19.553Z,37.67
2018-10-15T10:21:48.542Z,37.69
2018-10-15T10:24:18.067Z,36.87
2018-10-15T10:26:47.408Z,37.48
2018-10-15T10:29:17.038Z,36.70
2018-10-15T10:31:46.463Z,36.17
2018-10-15T10:34:16.322Z,36.27
2018-10-15T10:36:45.300Z,36.49
2018-10-15T10:39:14.718Z,36.46
2018-10-15T10:41:45.485Z,36.33
2018-10-15T10:44:14.737Z,36.11
2018-10-15T10:46:45.066Z,35.94
2018-10-15T10:49:14.370Z,35.17
2018-10-15T10:51:44.366Z,35.96
2018-10-15T10:54:13.995Z,35.52
2018-10-15T10:56:43.318Z,35.78
2018-10-15T10:59:12.602Z,36.02
2018-10-15T11:01:42.263Z,35.47
2018-10-15T11:04:11.550Z,36.00
2018-10-15T11:06:41.163Z,35.80
2018-10-15T11:09:10.130Z,34.83
2018-10-15T11:11:39.203Z,35.12
2018-10-15T11:14:08.488Z,34.57
2018-10-15T11:16:37.806Z,34.88
2018-10-15T11:19:07.259Z,34.10
2018-10-15T11:21:36.400Z,33.96
2018-10-15T11:24:05.438Z,33.95
2018-10-15T11:26:35.223Z,34.73
2018-10-15T11:29:10.558Z,33.97
2018-10-15T11:31:39.846Z,34.75
2018-10-15T11:34:08.867Z,33.81
2018-10-15T11:36:38.442Z,33.17
2018-10-15T11:39:07.563Z,33.08
2018-10-15T11:41:37.121Z,34.56
2018-10-15T11:44:06.146Z,34.87
2018-10-15T11:46:35.405Z,34.81
2018-10-15T11:49:04.605Z,34.27
2018-10-15T11:51:33.954Z,33.84
2018-10-15T11:54:03.685Z,34.53
2018-10-15T11:56:33.295Z,33.56
2018-10-15T11:59:02.870Z,33.39
2018-10-15T12:01:31.537Z,33.25
2018-10-15T12:04:00.871Z,33.27
2018-10-15T12:06:30.146Z,34.29
2018-10-15T12:08:59.486Z,33.31
2018-10-15T12:11:28.802Z,33.24
2018-10-15T12:13:58.401Z,33.40
2018-10-15T12:16:27.678Z,33.14
2018-10-15T12:18:57.010Z,33.95
2018-10-15T12:21:26.597Z,33.20
2018-10-15T12:23:55.886Z,33.47
2018-10-15T12:26:25.239Z,33.62
2018-10-15T12:28:54.210Z,32.68
2018-10-15T12:31:23.968Z,33.19
2018-10-15T12:33:53.537Z,33.18
2018-10-15T12:36:22.823Z,32.68
2018-10-15T12:38:52.178Z,33.24
2018-10-15T12:41:21.538Z,32.98
2018-10-15T12:43:51.006Z,33.68
2018-10-15T12:46:20.331Z,33.91
2018-10-15T12:48:50.722Z,35.13
2018-10-15T12:51:20.008Z,34.89
2018-10-15T12:53:49.726Z,35.23
2018-10-15T12:56:19.337Z,35.09
2018-10-15T12:58:48.615Z,34.97
2018-10-15T13:01:17.922Z,34.50
2018-10-15T13:03:47.487Z,34.32
2018-10-15T13:06:17.041Z,34.94
2018-10-15T13:08:46.873Z,34.99
2018-10-15T13:11:16.292Z,34.88
2018-10-15T13:13:45.451Z,35.04
2018-10-15T13:16:14.609Z,34.66
2018-10-15T13:18:49.706Z,35.07
2018-10-15T13:21:19.253Z,35.41
2018-10-15T13:23:48.809Z,35.90
2018-10-15T13:26:18.048Z,35.86
2018-10-15T13:28:47.733Z,35.03
2018-10-15T13:31:17.286Z,35.18
2018-10-15T13:33:46.577Z,35.93
2018-10-15T13:36:15.882Z,36.15
2018-10-15T13:38:45.793Z,34.88
2018-10-15T13:41:15.486Z,35.02
2018-10-15T13:43:45.760Z,35.51
2018-10-15T13:46:15.024Z,35.33
2018-10-15T13:48:45.750Z,34.67
2018-10-15T13:51:14.702Z,35.12
2018-10-15T13:53:44.001Z,35.54
2018-10-15T13:56:13.347Z,35.10
2018-10-15T13:58:42.651Z,35.97
2018-10-15T14:01:11.959Z,36.50
2018-10-15T14:03:41.233Z,35.98
2018-10-15T14:06:10.781Z,36.87
2018-10-15T14:08:39.728Z,36.98
2018-10-15T14:11:08.675Z,36.57
2018-10-15T14:13:37.983Z,36.04
2018-10-15T14:16:07.507Z,36.19
2018-10-15T14:18:36.974Z,36.04
2018-10-15T14:21:06.262Z,36.24
2018-10-15T14:23:35.569Z,36.46
2018-10-15T14:26:04.769Z,36.86
2018-10-15T14:28:34.056Z,36.23
2018-10-15T14:31:03.595Z,36.40
2018-10-15T14:33:33.662Z,35.61
2018-10-15T14:36:02.941Z,36.55
2018-10-15T14:38:32.574Z,36.23
2018-10-15T14:41:02.031Z,37.04
2018-10-15T14:43:31.531Z,36.55
2018-10-15T14:46:00.814Z,36.30
2018-10-15T14:48:30.118Z,36.07
2018-10-15T14:50:59.715Z,36.99
2018-10-15T14:53:32.322Z,36.21
2018-10-15T14:56:01.823Z,36.56
2018-10-15T14:58:31.148Z,37.69
2018-10-15T15:01:01.001Z,38.23
2018-10-15T15:03:30.057Z,38.75
2018-10-15T15:05:58.850Z,38.47
2018-10-15T15:08:28.422Z,39.41
2018-10-15T15:11:09.099Z,39.73
2018-10-15T15:13:49.831Z,40.36
2018-10-15T15:16:19.128Z,40.25
2018-10-15T15:18:48.690Z,41.17
2018-10-15T15:21:18.930Z,39.93
2018-10-15T15:23:48.210Z,39.82
2018-10-15T15:26:18.304Z,40.80
2018-10-15T15:28:47.983Z,41.24
2018-10-15T15:31:17.630Z,40.98
2018-10-15T15:33:47.201Z,41.45
2018-10-15T15:36:16.782Z,40.77
2018-10-15T15:38:46.245Z,41.77
2018-10-15T15:41:15.720Z,41.40
2018-10-15T15:43:45.713Z,41.77
2018-10-15T15:46:18.807Z,41.08
2018-10-15T15:48:49.412Z,42.00
2018-10-15T15:51:18.614Z,41.29
2018-10-15T15:53:48.010Z,41.36
2018-10-15T15:56:16.988Z,42.71
2018-10-15T15:58:45.932Z,41.85
2018-10-15T16:01:15.010Z,42.83
2018-10-15T16:03:44.330Z,43.88
2018-10-15T16:06:13.902Z,43.81
2018-10-15T16:08:42.845Z,43.80
2018-10-15T16:11:12.740Z,43.81
2018-10-15T16:13:42.192Z,44.53
2018-10-15T16:16:11.771Z,45.34
2018-10-15T16:18:41.115Z,45.71
2018-10-15T16:21:14.815Z,45.83
2018-10-15T16:23:44.094Z,47.00
2018-10-15T16:26:13.087Z,47.05
2018-10-15T16:28:42.623Z,47.88
2018-10-15T16:31:11.911Z,47.85
2018-10-15T16:33:48.782Z,47.95
2018-10-15T16:36:18.434Z,48.00
2018-10-15T16:38:48.031Z,48.60
2018-10-15T16:41:17.000Z,48.21
2018-10-15T16:43:46.288Z,49.44
2018-10-15T16:46:16.134Z,49.49
2018-10-15T16:48:46.133Z,49.55
2018-10-15T16:51:15.914Z,50.66
2018-10-15T16:53:45.874Z,50.58
2018-10-15T16:56:15.176Z,51.30
2018-10-15T16:58:44.460Z,51.54
2018-10-15T17:01:13.906Z,50.81
2018-10-15T17:03:43.196Z,51.49
2018-10-15T17:06:12.564Z,51.87
2018-10-15T17:08:42.084Z,52.50
2018-10-15T17:11:11.129Z,52.19
2018-10-15T17:13:40.429Z,51.66
2018-10-15T17:16:09.894Z,51.69
2018-10-15T17:18:39.180Z,52.27
2018-10-15T17:21:08.567Z,52.17
2018-10-15T17:23:37.973Z,53.02
2018-10-15T17:26:07.002Z,53.30
2018-10-15T17:28:36.286Z,53.89
2018-10-15T17:31:05.574Z,54.18
2018-10-15T17:33:34.817Z,54.24
2018-10-15T17:36:04.278Z,53.55
2018-10-15T17:38:33.580Z,53.69
2018-10-15T17:41:03.424Z,53.79
2018-10-15T17:43:33.783Z,54.90
2018-10-15T17:46:03.083Z,54.73
2018-10-15T17:48:32.481Z,55.66
2018-10-15T17:51:01.816Z,55.42
2018-10-15T17:53:31.123Z,55.44
2018-10-15T17:56:00.413Z,55.54
2018-10-15T17:58:30.031Z,55.86
2018-10-15T18:00:59.607Z,56.21
2018-10-15T18:03:29.182Z,55.41
2018-10-15T18:05:58.490Z,55.79
2018-10-15T18:08:28.115Z,56.10
2018-10-15T18:10:56.834Z,56.20
2018-10-15T18:13:26.119Z,56.87
2018-10-15T18:15:55.694Z,56.59
2018-10-15T18:18:24.954Z,57.18
2018-10-15T18:20:53.949Z,56.79
2018-10-15T18:23:23.245Z,57.33
2018-10-15T18:25:52.634Z,57.54
2018-10-15T18:28:22.130Z,57.65
2018-10-15T18:30:51.691Z,57.90
2018-10-15T18:33:21.166Z,59.19
2018-10-15T18:35:50.453Z,59.15
2018-10-15T18:38:19.830Z,58.98
2018-10-15T18:40:49.406Z,59.09
2018-10-15T18:43:18.493Z,59.78
2018-10-15T18:45:48.387Z,59.52
2018-10-15T18:48:18.122Z,60.47
2018-10-15T18:50:47.487Z,61.05
2018-10-15T18:53:17.096Z,60.96
2018-10-15T18:55:46.851Z,61.88
2018-10-15T18:58:16.154Z,62.30
2018-10-15T19:00:46.093Z,62.65
2018-10-15T19:03:15.330Z,62.94
2018-10-15T19:05:44.653Z,62.84
2018-10-15T19:08:14.179Z,62.91
2018-10-15T19:10:43.139Z,63.34
2018-10-15T19:13:12.447Z,63.64
2018-10-15T19:15:41.746Z,63.67
2018-10-15T19:18:11.663Z,63.91
2018-10-15T19:20:41.146Z,64.01
2018-10-15T19:23:10.436Z,65.14
2018-10-15T19:25:40.007Z,64.62
2018-10-15T19:28:09.427Z,65.50
2018-10-15T19:30:38.729Z,65.41
2018-10-15T19:33:08.322Z,66.31
2018-10-15T19:35:37.290Z,66.11
2018-10-15T19:38:06.246Z,66.00
2018-10-15T19:40:35.546Z,67.93
2018-10-15T19:43:05.230Z,67.04
2018-10-15T19:45:34.542Z,66.22
2018-10-15T19:48:04.118Z,66.04
2018-10-15T19:50:33.434Z,65.72
2018-10-15T19:53:02.713Z,65.84
2018-10-15T19:55:32.290Z,65.65
2018-10-15T19:58:01.870Z,66.29
2018-10-15T20:00:31.421Z,65.76
2018-10-15T20:03:00.730Z,66.72
2018-10-15T20:05:30.007Z,66.37
2018-10-15T20:07:59.182Z,67.04
2018-10-15T20:10:28.338Z,66.41
2018-10-15T20:12:57.782Z,67.54
2018-10-15T20:15:27.401Z,67.74
2018-10-15T20:17:56.689Z,67.44
2018-10-15T20:20:26.314Z,68.02
2018-10-15T20:22:55.816Z,67.50
2018-10-15T20:25:25.289Z,68.37
2018-10-15T20:27:54.673Z,68.41
2018-10-15T20:30:24.462Z,67.64
2018-10-15T20:32:53.757Z,67.85
2018-10-15T20:35:23.397Z,67.72
2018-10-15T20:37:52.847Z,68.34
2018-10-15T20:40:22.054Z,68.73
2018-10-15T20:42:51.648Z,68.95
2018-10-15T20:45:21.231Z,68.01
2018-10-15T20:47:50.714Z,68.58
2018-10-15T20:50:19.968Z,68.85
2018-10-15T20:52:49.733Z,68.46
2018-10-15T20:55:18.750Z,68.79
2018-10-15T20:57:48.768Z,69.72
2018-10-15T21:00:18.422Z,69.48
2018-10-15T21:02:47.555Z,70.77
2018-10-15T21:05:16.878Z,70.53
2018-10-15T21:07:46.901Z,70.90
2018-10-15T21:10:16.373Z,71.56
2018-10-15T21:12:46.870Z,71.43
2018-10-15T21:15:16.591Z,71.70
2018-10-15T21:17:46.996Z,71.22
2018-10-15T21:20:16.556Z,71.71
2018-10-15T21:22:46.888Z,71.81
2018-10-15T21:25:16.251Z,72.02
2018-10-15T21:27:46.890Z,72.27
2018-10-15T21:30:16.310Z,73.15
2018-10-15T21:32:47.022Z,72.93
2018-10-15T21:35:16.261Z,73.47
2018-10-15T21:37:47.613Z,73.84
2018-10-15T21:40:17.802Z,74.08
2018-10-15T21:42:47.407Z,74.28
2018-10-15T21:45:16.509Z,75.08
2018-10-15T21:47:47.081Z,75.01
2018-10-15T21:50:16.733Z,75.53
2018-10-15T21:52:46.951Z,75.51
2018-10-15T21:55:16.675Z,75.77
2018-10-15T21:57:47.074Z,75.14
2018-10-15T22:00:16.334Z,75.26
2018-10-15T22:02:48.241Z,75.75
2018-10-15T22:05:17.630Z,76.06
2018-10-15T22:07:46.741Z,76.10
2018-10-15T22:10:15.504Z,75.62
2018-10-15T22:12:44.803Z,75.10
2018-10-15T22:15:14.101Z,74.68
2018-10-15T22:17:43.626Z,75.01
2018-10-15T22:20:12.604Z,74.76
2018-10-15T22:22:41.581Z,75.00
2018-10-15T22:25:10.334Z,74.89
2018-10-15T22:27:39.469Z,75.53
2018-10-15T22:30:08.213Z,75.34
2018-10-15T22:32:37.784Z,75.75
2018-10-15T22:35:08.398Z,75.15
2018-10-15T22:37:37.370Z,75.64
2018-10-15T22:40:06.241Z,75.51
2018-10-15T22:42:35.800Z,75.18
2018-10-15T22:45:04.542Z,75.54
2018-10-15T22:47:33.865Z,75.74
2018-10-15T22:50:03.195Z,76.72
2018-10-15T22:52:32.671Z,76.25
2018-10-15T22:55:01.994Z,77.00
2018-10-15T22:57:31.293Z,77.40
2018-10-15T23:00:01.189Z,77.31
2018-10-15T23:02:30.677Z,77.30
2018-10-15T23:05:00.003Z,77.69
2018-10-15T23:07:29.314Z,77.02
2018-10-15T23:09:58.986Z,77.12
2018-10-15T23:12:40.937Z,77.91
2018-10-15T23:15:22.877Z,77.16
2018-10-15T23:17:59.406Z,77.19
2018-10-15T23:20:28.735Z,77.71
2018-10-15T23:22:58.246Z,77.75
2018-10-15T23:25:27.759Z,77.83
2018-10-15T23:27:57.185Z,77.69
2018-10-15T23:30:26.782Z,77.70
2018-10-15T23:32:56.357Z,77.97
2018-10-15T23:35:25.829Z,78.05
2018-10-15T23:37:55.134Z,77.60
2018-10-15T23:40:24.789Z,78.00
2018-10-15T23:42:54.405Z,77.93
2018-10-15T23:45:23.881Z,78.01
2018-10-15T23:47:53.190Z,77.89
2018-10-15T23:50:22.798Z,77.67
2018-10-15T23:52:52.123Z,78.00
2018-10-15T23:55:21.385Z,78.18
2018-10-15T23:57:51.061Z,77.71
